Algoa — ZR4311 — position and weather

sailwx.info

Track history (hours):
 
Tides and Currents Weather Stations Pressure Air Temp Water Temp Dewpoint Dewpoint Depression Visibility Wind Speed Wind Dir Waves Ship Positions

Oceanographic research ship Algoa (South Africa)

Detailed information on ship capabilities available from University of Delaware's Ocean Information Center.

Last reported at 2017-Apr-22 16:38 UTC. Time now 2017-Apr-30 16:46 UTC.
Position S 33°54' E 018°25'.
Warning: this ship's position is 8 days out of date.

Type: Other ship. MMSI: 599996424.

Date/timePositionNaut miles runAvg speedWind from/ knotsBaromVisibWave heightAir tempDewpointWater temp
2017-Apr-22 16:38S 33°54' E 018°25'0 0.0
2017-Apr-22 16:29S 33°54' E 018°25'0 0.0
2017-Apr-22 15:56S 33°54' E 018°25'0 0.0
2017-Apr-22 15:26S 33°54' E 018°25'0 0.0
2017-Apr-22 14:59S 33°54' E 018°25'0 0.0
2017-Apr-22 14:23S 33°54' E 018°25'0 0.0
2017-Apr-22 13:26S 33°54' E 018°25'0 0.0
2017-Apr-22 13:00S 33°54' E 018°25'0 0.1
2017-Apr-22 12:30S 33°54' E 018°25'0 0.0
2017-Apr-22 11:58S 33°54' E 018°25'0 0.8
2017-Apr-22 11:30S 33°54' E 018°26'0 0.0
2017-Apr-22 11:00S 33°54' E 018°26'0 0.0
2017-Apr-22 10:30S 33°54' E 018°26'0 0.0
2017-Apr-22 10:00S 33°54' E 018°26'0 0.0
2017-Apr-22 09:28S 33°54' E 018°26'0 0.0
2017-Apr-22 08:58S 33°54' E 018°26'0 0.0
2017-Apr-22 08:19S 33°54' E 018°26'0 0.0
2017-Apr-22 08:01S 33°54' E 018°26'0 0.0
2017-Apr-22 07:27S 33°54' E 018°26'0 0.0
2017-Apr-22 07:00S 33°54' E 018°26'0 0.0
2017-Apr-22 06:30S 33°54' E 018°26'0 0.0
2017-Apr-22 06:00S 33°54' E 018°26'0 0.0
2017-Apr-22 05:30S 33°54' E 018°26'0 0.0
2017-Apr-22 05:00S 33°54' E 018°26'0 0.0
2017-Apr-22 04:27S 33°54' E 018°26'0 0.0
2017-Apr-22 04:00S 33°54' E 018°26'0 0.0
2017-Apr-22 03:30S 33°54' E 018°26'0 0.0
2017-Apr-22 03:00S 33°54' E 018°26'0 0.0
2017-Apr-22 02:30S 33°54' E 018°26'0 0.0
2017-Apr-22 01:57S 33°54' E 018°26'0 0.0
2017-Apr-22 01:30S 33°54' E 018°26'0 0.0
2017-Apr-22 00:48S 33°54' E 018°26'0 0.0
2017-Apr-22 00:30S 33°54' E 018°26'0 0.0
2017-Apr-22 00:00S 33°54' E 018°26'0 0.0
2017-Apr-21 23:27S 33°54' E 018°26'0 0.0
2017-Apr-21 23:00S 33°54' E 018°26'0 0.0
2017-Apr-21 22:27S 33°54' E 018°26'0 0.0
2017-Apr-21 22:00S 33°54' E 018°26'0 0.0
2017-Apr-21 21:30S 33°54' E 018°26'0 0.0
2017-Apr-21 21:00S 33°54' E 018°26'0 0.0
2017-Apr-21 20:30S 33°54' E 018°26'0 0.0
2017-Apr-21 20:00S 33°54' E 018°26'0 0.0
2017-Apr-21 19:30S 33°54' E 018°26'0 0.0
2017-Apr-21 18:54S 33°54' E 018°26'0 0.0
2017-Apr-21 18:27S 33°54' E 018°26'0 0.0
2017-Apr-21 18:00S 33°54' E 018°26'0 0.0
2017-Apr-21 17:30S 33°54' E 018°26'0 0.0
2017-Apr-21 16:57S 33°54' E 018°26'0 0.0
2017-Apr-21 16:30S 33°54' E 018°26'0 0.0
2017-Apr-21 16:00S 33°54' E 018°26'0 0.0
2017-Apr-21 15:24S 33°54' E 018°26'0 0.0
2017-Apr-21 15:00S 33°54' E 018°26'0 0.0
2017-Apr-21 14:30S 33°54' E 018°26'0 0.0
2017-Apr-21 13:31S 33°54' E 018°26'1 2.0
2017-Apr-21 12:59S 33°53' E 018°25'5 9.9
2017-Apr-21 12:30S 33°53' E 018°19'11 0.2
2017-Apr-19 10:43S 33°49' E 018°07'310.2
2017-Apr-19 10:27S 33°50' E 018°10'510.4
2017-Apr-19 10:00S 33°52' E 018°15'510.2
2017-Apr-19 09:29S 33°53' E 018°21'4 9.2
2017-Apr-19 09:00S 33°54' E 018°26'1 1.2
2017-Apr-19 08:30S 33°54' E 018°26'0 0.0
2017-Apr-19 07:54S 33°54' E 018°26'0 0.0
2017-Apr-19 07:30S 33°54' E 018°26'0 0.0
2017-Apr-19 07:00S 33°54' E 018°26'0 0.0
2017-Apr-19 06:30S 33°54' E 018°26'0 0.0
2017-Apr-19 05:58S 33°54' E 018°26'0 0.0
2017-Apr-19 05:25S 33°54' E 018°26'0 0.0
2017-Apr-19 04:58S 33°54' E 018°26'0 0.0
2017-Apr-19 04:28S 33°54' E 018°26'0 0.0
2017-Apr-19 03:49S 33°54' E 018°26'0 0.0
2017-Apr-19 03:28S 33°54' E 018°26'0 0.0
2017-Apr-19 02:58S 33°54' E 018°26'0 0.0
2017-Apr-19 02:28S 33°54' E 018°26'0 0.0
2017-Apr-19 01:58S 33°54' E 018°26'0 0.0
2017-Apr-19 01:25S 33°54' E 018°26'0 0.0
2017-Apr-19 00:55S 33°54' E 018°26'0 0.0
2017-Apr-19 00:28S 33°54' E 018°26'0 0.0
2017-Apr-18 23:55S 33°54' E 018°26'0 0.0
2017-Apr-18 23:28S 33°54' E 018°26'0 0.0
2017-Apr-18 22:58S 33°54' E 018°26'0 0.0
2017-Apr-18 22:28S 33°54' E 018°26'0 0.0
2017-Apr-18 21:58S 33°54' E 018°26'0 0.0
2017-Apr-18 21:25S 33°54' E 018°26'0 0.0
2017-Apr-18 20:58S 33°54' E 018°26'0 0.0
2017-Apr-18 20:28S 33°54' E 018°26'0 0.0
2017-Apr-18 19:58S 33°54' E 018°26'0 0.0
2017-Apr-18 19:28S 33°54' E 018°26'0 0.0
2017-Apr-18 18:58S 33°54' E 018°26'0 0.0
2017-Apr-18 18:28S 33°54' E 018°26'0 0.0
2017-Apr-18 17:55S 33°54' E 018°26'0 0.0
2017-Apr-18 17:28S 33°54' E 018°26'0 0.0
2017-Apr-18 16:55S 33°54' E 018°26'0 0.0
2017-Apr-18 16:28S 33°54' E 018°26'0 0.0
2017-Apr-18 15:58S 33°54' E 018°26'0 0.0
2017-Apr-18 15:28S 33°54' E 018°26'0 0.0
2017-Apr-18 14:58S 33°54' E 018°26'0 0.0
2017-Apr-18 14:28S 33°54' E 018°26'0 0.0
2017-Apr-18 13:25S 33°54' E 018°26'0 0.0
2017-Apr-18 12:58S 33°54' E 018°26'0 0.0
2017-Apr-18 12:28S 33°54' E 018°26'0 0.0
2017-Apr-18 11:55S 33°54' E 018°26'0 0.0
2017-Apr-18 11:28S 33°54' E 018°26'0 0.0
2017-Apr-18 10:58S 33°54' E 018°26'0 0.0
2017-Apr-18 10:28S 33°54' E 018°26'0 0.0
2017-Apr-18 09:58S 33°54' E 018°26'0 0.0
2017-Apr-18 09:28S 33°54' E 018°26'0 0.0
2017-Apr-18 08:52S 33°54' E 018°26'0 0.0
2017-Apr-18 08:28S 33°54' E 018°26'0 0.0
2017-Apr-18 07:58S 33°54' E 018°26'0 0.0
2017-Apr-18 07:31S 33°54' E 018°26'0 0.0
2017-Apr-18 07:01S 33°54' E 018°26'0 0.0
2017-Apr-18 06:27S 33°54' E 018°26'0 0.0
2017-Apr-18 06:00S 33°54' E 018°26'0 0.0
2017-Apr-18 05:24S 33°54' E 018°26'0 0.0
2017-Apr-18 05:00S 33°54' E 018°26'0 0.0
2017-Apr-18 04:27S 33°54' E 018°26'0 0.0
2017-Apr-18 03:57S 33°54' E 018°26'0 0.0
2017-Apr-18 03:30S 33°54' E 018°26'0 0.0
2017-Apr-18 02:57S 33°54' E 018°26'0 0.0
2017-Apr-18 02:30S 33°54' E 018°26'0 0.0
2017-Apr-18 02:00S 33°54' E 018°26'0 0.0
2017-Apr-18 01:30S 33°54' E 018°26'0 0.0
2017-Apr-18 00:57S 33°54' E 018°26'0 0.0
2017-Apr-18 00:30S 33°54' E 018°26'0 0.0
2017-Apr-18 00:00S 33°54' E 018°26'0 0.0
2017-Apr-17 23:30S 33°54' E 018°26'0 0.0
2017-Apr-17 23:00S 33°54' E 018°26'0 0.0
2017-Apr-17 22:30S 33°54' E 018°26'0 0.0
2017-Apr-17 22:00S 33°54' E 018°26'0 0.0
2017-Apr-17 21:30S 33°54' E 018°26'0 0.0
2017-Apr-17 20:57S 33°54' E 018°26'0 0.0
2017-Apr-17 20:27S 33°54' E 018°26'0 0.0
2017-Apr-17 19:54S 33°54' E 018°26'0 0.0
2017-Apr-17 19:27S 33°54' E 018°26'0 0.0
2017-Apr-17 19:00S 33°54' E 018°26'0 0.0
2017-Apr-17 18:30S 33°54' E 018°26'0 0.0
2017-Apr-17 17:57S 33°54' E 018°26'0 0.0
2017-Apr-17 17:30S 33°54' E 018°26'0 0.0
2017-Apr-17 17:00S 33°54' E 018°26'0 0.0
2017-Apr-17 16:27S 33°54' E 018°26'0 0.0
2017-Apr-17 15:57S 33°54' E 018°26'0 0.0
2017-Apr-17 15:30S 33°54' E 018°26'0 0.0
2017-Apr-17 15:00S 33°54' E 018°26'0 0.0
2017-Apr-17 14:30S 33°54' E 018°26'0 0.0
2017-Apr-17 13:18S 33°54' E 018°26'0 0.0
2017-Apr-17 13:00S 33°54' E 018°26'0 0.0
2017-Apr-17 12:27S 33°54' E 018°26'0 0.0
2017-Apr-17 12:00S 33°54' E 018°26'0 0.0
2017-Apr-17 11:30S 33°54' E 018°26'0 0.0
2017-Apr-17 11:00S 33°54' E 018°26'0 0.0
2017-Apr-17 10:30S 33°54' E 018°26'0 0.0
2017-Apr-17 09:57S 33°54' E 018°26'0 0.0
2017-Apr-17 09:30S 33°54' E 018°26'0 0.0
2017-Apr-17 09:00S 33°54' E 018°26'0 0.0
2017-Apr-17 08:30S 33°54' E 018°26'0 0.0
2017-Apr-17 07:57S 33°54' E 018°26'0 0.0
2017-Apr-17 07:30S 33°54' E 018°26'0 0.0
2017-Apr-17 07:00S 33°54' E 018°26'0 0.0
2017-Apr-17 06:30S 33°54' E 018°26'0 0.0
2017-Apr-17 06:00S 33°54' E 018°26'0 0.0
2017-Apr-17 05:24S 33°54' E 018°26'0 0.0
2017-Apr-17 05:00S 33°54' E 018°26'0 0.0
2017-Apr-17 04:27S 33°54' E 018°26'0 0.0
2017-Apr-17 04:00S 33°54' E 018°26'0 0.0
2017-Apr-17 03:27S 33°54' E 018°26'0 0.0
2017-Apr-17 03:00S 33°54' E 018°26'0 0.0
2017-Apr-17 02:30S 33°54' E 018°26'0 0.0
2017-Apr-17 02:00S 33°54' E 018°26'0 0.0
2017-Apr-17 01:27S 33°54' E 018°26'0 0.0
2017-Apr-17 00:57S 33°54' E 018°26'0 0.0
2017-Apr-17 00:30S 33°54' E 018°26'0 0.0
2017-Apr-17 00:00S 33°54' E 018°26'0 0.0
2017-Apr-16 23:30S 33°54' E 018°26'0 0.0
2017-Apr-16 22:54S 33°54' E 018°26'0 0.0
2017-Apr-16 22:30S 33°54' E 018°26'0 0.0
2017-Apr-16 21:57S 33°54' E 018°26'0 0.0
2017-Apr-16 21:24S 33°54' E 018°26'0 0.0
2017-Apr-16 21:00S 33°54' E 018°26'0 0.0
2017-Apr-16 20:30S 33°54' E 018°26'0 0.0
2017-Apr-16 19:59S 33°54' E 018°26'0 0.0
2017-Apr-16 19:29S 33°54' E 018°26'0 0.0
2017-Apr-16 18:59S 33°54' E 018°26'0 0.0
2017-Apr-16 18:29S 33°54' E 018°26'0 0.0
2017-Apr-16 17:59S 33°54' E 018°26'0 0.0
2017-Apr-16 17:29S 33°54' E 018°26'0 0.0
2017-Apr-16 16:59S 33°54' E 018°26'0 0.0
2017-Apr-16 16:29S 33°54' E 018°26'0 0.0
2017-Apr-16 15:56S 33°54' E 018°26'0 0.0
2017-Apr-16 15:23S 33°54' E 018°26'0 0.0
2017-Apr-16 14:59S 33°54' E 018°26'0 0.0
2017-Apr-16 13:56S 33°54' E 018°26'0 0.0
2017-Apr-16 13:29S 33°54' E 018°26'0 0.0
2017-Apr-16 12:56S 33°54' E 018°26'0 0.0
2017-Apr-16 12:29S 33°54' E 018°26'0 0.0
2017-Apr-16 11:59S 33°54' E 018°26'0 0.0
2017-Apr-16 11:29S 33°54' E 018°26'0 0.0
2017-Apr-16 10:50S 33°54' E 018°26'0 0.0
2017-Apr-16 10:29S 33°54' E 018°26'0 0.0
2017-Apr-16 09:59S 33°54' E 018°26'0 0.0
2017-Apr-16 09:29S 33°54' E 018°26'0 0.0
2017-Apr-16 08:59S 33°54' E 018°26'0 0.0
2017-Apr-16 08:29S 33°54' E 018°26'0 0.0
2017-Apr-16 07:59S 33°54' E 018°26'0 0.0
2017-Apr-16 07:29S 33°54' E 018°26'0 0.0
2017-Apr-16 06:56S 33°54' E 018°26'0 0.0
2017-Apr-16 06:29S 33°54' E 018°26'0 0.0
2017-Apr-16 05:59S 33°54' E 018°26'0 0.0
2017-Apr-16 05:29S 33°54' E 018°26'0 0.0
2017-Apr-16 04:59S 33°54' E 018°26'0 0.0
2017-Apr-16 04:29S 33°54' E 018°26'0 0.0
2017-Apr-16 03:53S 33°54' E 018°26'0 0.0
2017-Apr-16 03:23S 33°54' E 018°26'0 0.0
2017-Apr-16 02:59S 33°54' E 018°26'0 0.0
2017-Apr-16 02:29S 33°54' E 018°26'0 0.0
2017-Apr-16 01:56S 33°54' E 018°26'0 0.0
2017-Apr-16 01:29S 33°54' E 018°26'0 0.0
2017-Apr-16 00:59S 33°54' E 018°26'0 0.0
2017-Apr-16 00:26S 33°54' E 018°26'0 0.0
2017-Apr-15 23:59S 33°54' E 018°26'0 0.0
2017-Apr-15 23:29S 33°54' E 018°26'0 0.0
2017-Apr-15 22:53S 33°54' E 018°26'0 0.0
2017-Apr-15 22:29S 33°54' E 018°26'0 0.0
2017-Apr-15 21:59S 33°54' E 018°26'0 0.0
2017-Apr-15 21:29S 33°54' E 018°26'0 0.0
2017-Apr-15 20:59S 33°54' E 018°26'0 0.0
2017-Apr-15 20:29S 33°54' E 018°26'0 0.0
2017-Apr-15 19:59S 33°54' E 018°26'0 0.0
2017-Apr-15 19:26S 33°54' E 018°26'0 0.0
2017-Apr-15 18:56S 33°54' E 018°26'0 0.0
2017-Apr-15 18:29S 33°54' E 018°26'0 0.0
2017-Apr-15 17:59S 33°54' E 018°26'0 0.0
2017-Apr-15 17:29S 33°54' E 018°26'0 0.0
2017-Apr-15 16:59S 33°54' E 018°26'0 0.0
2017-Apr-15 16:29S 33°54' E 018°26'0 0.0
2017-Apr-15 15:53S 33°54' E 018°26'0 0.0
2017-Apr-15 15:29S 33°54' E 018°26'0 0.0
2017-Apr-15 14:59S 33°54' E 018°26'0 0.0
2017-Apr-15 14:29S 33°54' E 018°26'0 0.0
2017-Apr-15 13:59S 33°54' E 018°26'0 0.0
2017-Apr-15 13:29S 33°54' E 018°26'0 0.0
2017-Apr-15 12:59S 33°54' E 018°26'0 0.0
2017-Apr-15 12:29S 33°54' E 018°26'0 0.0
2017-Apr-15 11:59S 33°54' E 018°26'0 0.0
2017-Apr-15 11:29S 33°54' E 018°26'0 0.0
2017-Apr-15 10:59S 33°54' E 018°26'0 0.0
2017-Apr-15 10:28S 33°54' E 018°26'0 0.0
2017-Apr-15 09:58S 33°54' E 018°26'0 0.0
2017-Apr-15 09:28S 33°54' E 018°26'0 0.0
2017-Apr-15 08:55S 33°54' E 018°26'0 0.0
2017-Apr-15 08:28S 33°54' E 018°26'0 0.0
2017-Apr-15 07:58S 33°54' E 018°26'0 0.0
2017-Apr-15 07:28S 33°54' E 018°26'0 0.0
2017-Apr-15 06:58S 33°54' E 018°26'0 0.0
2017-Apr-15 06:22S 33°54' E 018°26'0 0.0
2017-Apr-15 05:55S 33°54' E 018°26'0 0.0
2017-Apr-15 05:28S 33°54' E 018°26'0 0.0
2017-Apr-15 04:52S 33°54' E 018°26'0 0.0
2017-Apr-15 04:28S 33°54' E 018°26'0 0.0
2017-Apr-15 03:55S 33°54' E 018°26'0 0.0
2017-Apr-15 03:28S 33°54' E 018°26'0 0.0
2017-Apr-15 02:58S 33°54' E 018°26'0 0.0
2017-Apr-15 02:28S 33°54' E 018°26'0 0.0
2017-Apr-15 01:58S 33°54' E 018°26'0 0.0
2017-Apr-15 01:25S 33°54' E 018°26'0 0.0
2017-Apr-15 00:58S 33°54' E 018°26'0 0.0
2017-Apr-15 00:25S 33°54' E 018°26'0 0.0
2017-Apr-14 23:58S 33°54' E 018°26'0 0.0
2017-Apr-14 23:13S 33°54' E 018°26'0 0.0
2017-Apr-14 22:58S 33°54' E 018°26'0 0.0
2017-Apr-14 22:28S 33°54' E 018°26'0 0.0
2017-Apr-14 21:58S 33°54' E 018°26'0 0.0
2017-Apr-14 21:28S 33°54' E 018°26'0 0.0
2017-Apr-14 20:52S 33°54' E 018°26'0 0.0
2017-Apr-14 20:28S 33°54' E 018°26'0 0.0
2017-Apr-14 19:58S 33°54' E 018°26'0 0.0
2017-Apr-14 19:25S 33°54' E 018°26'0 0.0
2017-Apr-14 18:58S 33°54' E 018°26'0 0.0
2017-Apr-14 18:28S 33°54' E 018°26'0 0.0
2017-Apr-14 17:52S 33°54' E 018°26'0 0.0
2017-Apr-14 17:25S 33°54' E 018°26'0 0.0
2017-Apr-14 16:55S 33°54' E 018°26'0 0.0
2017-Apr-14 16:28S 33°54' E 018°26'0 0.0
2017-Apr-14 15:58S 33°54' E 018°26'0 0.0
2017-Apr-14 15:25S 33°54' E 018°26'0 0.0
2017-Apr-14 14:58S 33°54' E 018°26'0 0.0
2017-Apr-14 14:22S 33°54' E 018°26'0 0.0
2017-Apr-14 13:28S 33°54' E 018°26'0 0.0
2017-Apr-14 12:58S 33°54' E 018°26'0 0.0
2017-Apr-14 12:28S 33°54' E 018°26'0 0.0
2017-Apr-14 11:58S 33°54' E 018°26'0 0.0
2017-Apr-14 11:25S 33°54' E 018°26'0 0.0
2017-Apr-14 10:58S 33°54' E 018°26'0 0.0
2017-Apr-14 10:28S 33°54' E 018°26'0 0.0
2017-Apr-14 09:58S 33°54' E 018°26'0 0.0
2017-Apr-14 09:28S 33°54' E 018°26'0 0.0
2017-Apr-14 08:58S 33°54' E 018°26'0 0.0
2017-Apr-14 08:28S 33°54' E 018°26'0 0.0
2017-Apr-14 07:58S 33°54' E 018°26'0 0.0
2017-Apr-14 07:28S 33°54' E 018°26'0 0.0
2017-Apr-14 06:55S 33°54' E 018°26'0 0.0
2017-Apr-14 06:25S 33°54' E 018°26'0 0.0
2017-Apr-14 05:58S 33°54' E 018°26'0 0.0
2017-Apr-14 05:28S 33°54' E 018°26'0 0.0
2017-Apr-14 04:58S 33°54' E 018°26'0 0.0
2017-Apr-14 04:28S 33°54' E 018°26'0 0.0
2017-Apr-14 03:58S 33°54' E 018°26'0 0.0
2017-Apr-14 03:28S 33°54' E 018°26'0 0.0
2017-Apr-14 02:58S 33°54' E 018°26'0 0.0
2017-Apr-14 02:28S 33°54' E 018°26'0 0.0
2017-Apr-14 01:55S 33°54' E 018°26'0 0.0
2017-Apr-14 01:31S 33°54' E 018°26'0 0.0
2017-Apr-14 00:55S 33°54' E 018°26'0 0.0
2017-Apr-14 00:30S 33°54' E 018°26'0 0.0
2017-Apr-14 00:00S 33°54' E 018°26'0 0.0
2017-Apr-13 23:30S 33°54' E 018°26'0 0.0
2017-Apr-13 23:00S 33°54' E 018°26'0 0.0
2017-Apr-13 22:30S 33°54' E 018°26'0 0.0
2017-Apr-13 22:00S 33°54' E 018°26'0 0.0
2017-Apr-13 21:27S 33°54' E 018°26'0 0.0
2017-Apr-13 21:00S 33°54' E 018°26'0 0.0
2017-Apr-13 20:27S 33°54' E 018°26'0 0.0
2017-Apr-13 19:54S 33°54' E 018°26'0 0.0
2017-Apr-13 19:24S 33°54' E 018°26'0 0.0
2017-Apr-13 18:54S 33°54' E 018°26'0 0.0
2017-Apr-13 18:30S 33°54' E 018°26'0 0.0
2017-Apr-13 17:57S 33°54' E 018°26'0 0.0
2017-Apr-13 17:30S 33°54' E 018°26'0 0.0
2017-Apr-13 17:00S 33°54' E 018°26'0 0.0
2017-Apr-13 16:30S 33°54' E 018°26'0 0.0
2017-Apr-13 15:54S 33°54' E 018°26'0 0.0
2017-Apr-13 15:30S 33°54' E 018°26'0 0.0
2017-Apr-13 15:00S 33°54' E 018°26'0 0.0
2017-Apr-13 14:00S 33°54' E 018°26'0 0.0
2017-Apr-13 13:30S 33°54' E 018°26'0 0.0
2017-Apr-13 13:00S 33°54' E 018°26'0 0.0
2017-Apr-13 12:30S 33°54' E 018°26'0 0.0
2017-Apr-13 12:00S 33°54' E 018°26'0 0.0
2017-Apr-13 11:30S 33°54' E 018°26'0 0.0
2017-Apr-13 10:58S 33°54' E 018°26'0 0.0
2017-Apr-13 10:25S 33°54' E 018°26'0 0.0
2017-Apr-13 09:58S 33°54' E 018°26'0 0.0
2017-Apr-13 09:25S 33°54' E 018°26'0 0.0
2017-Apr-13 08:58S 33°54' E 018°26'0 0.0
2017-Apr-13 08:28S 33°54' E 018°26'0 0.0
2017-Apr-13 07:58S 33°54' E 018°26'0 0.0
2017-Apr-13 07:28S 33°54' E 018°26'0 0.0
2017-Apr-13 06:55S 33°54' E 018°26'0 0.0
2017-Apr-13 06:28S 33°54' E 018°26'0 0.0
2017-Apr-13 05:58S 33°54' E 018°26'0 0.0
2017-Apr-13 05:22S 33°54' E 018°26'0 0.0
2017-Apr-13 04:58S 33°54' E 018°26'0 0.0
2017-Apr-13 04:28S 33°54' E 018°26'0 0.0
2017-Apr-13 03:52S 33°54' E 018°26'0 0.0
2017-Apr-13 03:31S 33°54' E 018°26'0 0.0
2017-Apr-13 03:01S 33°54' E 018°26'0 0.0
2017-Apr-13 02:30S 33°54' E 018°26'0 0.0
2017-Apr-13 01:57S 33°54' E 018°26'0 0.0
2017-Apr-13 01:27S 33°54' E 018°26'0 0.0
2017-Apr-13 01:00S 33°54' E 018°26'0 0.0
2017-Apr-13 00:30S 33°54' E 018°26'0 0.0
2017-Apr-13 00:00S 33°54' E 018°26'0 0.0
2017-Apr-12 23:30S 33°54' E 018°26'0 0.0
2017-Apr-12 23:00S 33°54' E 018°26'0 0.0
2017-Apr-12 22:27S 33°54' E 018°26'0 0.0
2017-Apr-12 22:00S 33°54' E 018°26'0 0.0
2017-Apr-12 21:30S 33°54' E 018°26'0 0.0
2017-Apr-12 21:00S 33°54' E 018°26'0 0.0
2017-Apr-12 20:30S 33°54' E 018°26'0 0.0
2017-Apr-12 19:57S 33°54' E 018°26'0 0.0
2017-Apr-12 19:30S 33°54' E 018°26'0 0.0
2017-Apr-12 19:00S 33°54' E 018°26'0 0.0
2017-Apr-12 18:30S 33°54' E 018°26'0 0.0
2017-Apr-12 18:00S 33°54' E 018°26'0 0.0
2017-Apr-12 17:27S 33°54' E 018°26'0 0.0
2017-Apr-12 16:45S 33°54' E 018°26'  
Track history (hours):
 
Tides and Currents Weather Stations Pressure Air Temp Water Temp Dewpoint Dewpoint Depression Visibility Wind Speed Wind Dir Waves Ship Positions

Oceanographic research ship Algoa (South Africa)

Detailed information on ship capabilities available from University of Delaware's Ocean Information Center.

Last reported at 2017-Apr-22 16:38 UTC. Time now 2017-Apr-30 16:46 UTC.
Position S 33°54' E 018°25'.
Warning: this ship's position is 8 days out of date.

Type: Other ship. MMSI: 599996424.

Date/timePositionNaut miles runAvg speedWind from/ knotsBaromVisibWave heightAir tempDewpointWater temp
2017-Apr-22 16:38S 33°54' E 018°25'0 0.0
2017-Apr-22 16:29S 33°54' E 018°25'0 0.0
2017-Apr-22 15:56S 33°54' E 018°25'0 0.0
2017-Apr-22 15:26S 33°54' E 018°25'0 0.0
2017-Apr-22 14:59S 33°54' E 018°25'0 0.0
2017-Apr-22 14:23S 33°54' E 018°25'0 0.0
2017-Apr-22 13:26S 33°54' E 018°25'0 0.0
2017-Apr-22 13:00S 33°54' E 018°25'0 0.1
2017-Apr-22 12:30S 33°54' E 018°25'0 0.0
2017-Apr-22 11:58S 33°54' E 018°25'0 0.8
2017-Apr-22 11:30S 33°54' E 018°26'0 0.0
2017-Apr-22 11:00S 33°54' E 018°26'0 0.0
2017-Apr-22 10:30S 33°54' E 018°26'0 0.0
2017-Apr-22 10:00S 33°54' E 018°26'0 0.0
2017-Apr-22 09:28S 33°54' E 018°26'0 0.0
2017-Apr-22 08:58S 33°54' E 018°26'0 0.0
2017-Apr-22 08:19S 33°54' E 018°26'0 0.0
2017-Apr-22 08:01S 33°54' E 018°26'0 0.0
2017-Apr-22 07:27S 33°54' E 018°26'0 0.0
2017-Apr-22 07:00S 33°54' E 018°26'0 0.0
2017-Apr-22 06:30S 33°54' E 018°26'0 0.0
2017-Apr-22 06:00S 33°54' E 018°26'0 0.0
2017-Apr-22 05:30S 33°54' E 018°26'0 0.0
2017-Apr-22 05:00S 33°54' E 018°26'0 0.0
2017-Apr-22 04:27S 33°54' E 018°26'0 0.0
2017-Apr-22 04:00S 33°54' E 018°26'0 0.0
2017-Apr-22 03:30S 33°54' E 018°26'0 0.0
2017-Apr-22 03:00S 33°54' E 018°26'0 0.0
2017-Apr-22 02:30S 33°54' E 018°26'0 0.0
2017-Apr-22 01:57S 33°54' E 018°26'0 0.0
2017-Apr-22 01:30S 33°54' E 018°26'0 0.0
2017-Apr-22 00:48S 33°54' E 018°26'0 0.0
2017-Apr-22 00:30S 33°54' E 018°26'0 0.0
2017-Apr-22 00:00S 33°54' E 018°26'0 0.0
2017-Apr-21 23:27S 33°54' E 018°26'0 0.0
2017-Apr-21 23:00S 33°54' E 018°26'0 0.0
2017-Apr-21 22:27S 33°54' E 018°26'0 0.0
2017-Apr-21 22:00S 33°54' E 018°26'0 0.0
2017-Apr-21 21:30S 33°54' E 018°26'0 0.0
2017-Apr-21 21:00S 33°54' E 018°26'0 0.0
2017-Apr-21 20:30S 33°54' E 018°26'0 0.0
2017-Apr-21 20:00S 33°54' E 018°26'0 0.0
2017-Apr-21 19:30S 33°54' E 018°26'0 0.0
2017-Apr-21 18:54S 33°54' E 018°26'0 0.0
2017-Apr-21 18:27S 33°54' E 018°26'0 0.0
2017-Apr-21 18:00S 33°54' E 018°26'0 0.0
2017-Apr-21 17:30S 33°54' E 018°26'0 0.0
2017-Apr-21 16:57S 33°54' E 018°26'0 0.0
2017-Apr-21 16:30S 33°54' E 018°26'0 0.0
2017-Apr-21 16:00S 33°54' E 018°26'0 0.0
2017-Apr-21 15:24S 33°54' E 018°26'0 0.0
2017-Apr-21 15:00S 33°54' E 018°26'0 0.0
2017-Apr-21 14:30S 33°54' E 018°26'0 0.0
2017-Apr-21 13:31S 33°54' E 018°26'1 2.0
2017-Apr-21 12:59S 33°53' E 018°25'5 9.9
2017-Apr-21 12:30S 33°53' E 018°19'11 0.2
2017-Apr-19 10:43S 33°49' E 018°07'310.2
2017-Apr-19 10:27S 33°50' E 018°10'510.4
2017-Apr-19 10:00S 33°52' E 018°15'510.2
2017-Apr-19 09:29S 33°53' E 018°21'4 9.2
2017-Apr-19 09:00S 33°54' E 018°26'1 1.2
2017-Apr-19 08:30S 33°54' E 018°26'0 0.0
2017-Apr-19 07:54S 33°54' E 018°26'0 0.0
2017-Apr-19 07:30S 33°54' E 018°26'0 0.0
2017-Apr-19 07:00S 33°54' E 018°26'0 0.0
2017-Apr-19 06:30S 33°54' E 018°26'0 0.0
2017-Apr-19 05:58S 33°54' E 018°26'0 0.0
2017-Apr-19 05:25S 33°54' E 018°26'0 0.0
2017-Apr-19 04:58S 33°54' E 018°26'0 0.0
2017-Apr-19 04:28S 33°54' E 018°26'0 0.0
2017-Apr-19 03:49S 33°54' E 018°26'0 0.0
2017-Apr-19 03:28S 33°54' E 018°26'0 0.0
2017-Apr-19 02:58S 33°54' E 018°26'0 0.0
2017-Apr-19 02:28S 33°54' E 018°26'0 0.0
2017-Apr-19 01:58S 33°54' E 018°26'0 0.0
2017-Apr-19 01:25S 33°54' E 018°26'0 0.0
2017-Apr-19 00:55S 33°54' E 018°26'0 0.0
2017-Apr-19 00:28S 33°54' E 018°26'0 0.0
2017-Apr-18 23:55S 33°54' E 018°26'0 0.0
2017-Apr-18 23:28S 33°54' E 018°26'0 0.0
2017-Apr-18 22:58S 33°54' E 018°26'0 0.0
2017-Apr-18 22:28S 33°54' E 018°26'0 0.0
2017-Apr-18 21:58S 33°54' E 018°26'0 0.0
2017-Apr-18 21:25S 33°54' E 018°26'0 0.0
2017-Apr-18 20:58S 33°54' E 018°26'0 0.0
2017-Apr-18 20:28S 33°54' E 018°26'0 0.0
2017-Apr-18 19:58S 33°54' E 018°26'0 0.0
2017-Apr-18 19:28S 33°54' E 018°26'0 0.0
2017-Apr-18 18:58S 33°54' E 018°26'0 0.0
2017-Apr-18 18:28S 33°54' E 018°26'0 0.0
2017-Apr-18 17:55S 33°54' E 018°26'0 0.0
2017-Apr-18 17:28S 33°54' E 018°26'0 0.0
2017-Apr-18 16:55S 33°54' E 018°26'0 0.0
2017-Apr-18 16:28S 33°54' E 018°26'0 0.0
2017-Apr-18 15:58S 33°54' E 018°26'0 0.0
2017-Apr-18 15:28S 33°54' E 018°26'0 0.0
2017-Apr-18 14:58S 33°54' E 018°26'0 0.0
2017-Apr-18 14:28S 33°54' E 018°26'0 0.0
2017-Apr-18 13:25S 33°54' E 018°26'0 0.0
2017-Apr-18 12:58S 33°54' E 018°26'0 0.0
2017-Apr-18 12:28S 33°54' E 018°26'0 0.0
2017-Apr-18 11:55S 33°54' E 018°26'0 0.0
2017-Apr-18 11:28S 33°54' E 018°26'0 0.0
2017-Apr-18 10:58S 33°54' E 018°26'0 0.0
2017-Apr-18 10:28S 33°54' E 018°26'0 0.0
2017-Apr-18 09:58S 33°54' E 018°26'0 0.0
2017-Apr-18 09:28S 33°54' E 018°26'0 0.0
2017-Apr-18 08:52S 33°54' E 018°26'0 0.0
2017-Apr-18 08:28S 33°54' E 018°26'0 0.0
2017-Apr-18 07:58S 33°54' E 018°26'0 0.0
2017-Apr-18 07:31S 33°54' E 018°26'0 0.0
2017-Apr-18 07:01S 33°54' E 018°26'0 0.0
2017-Apr-18 06:27S 33°54' E 018°26'0 0.0
2017-Apr-18 06:00S 33°54' E 018°26'0 0.0
2017-Apr-18 05:24S 33°54' E 018°26'0 0.0
2017-Apr-18 05:00S 33°54' E 018°26'0 0.0
2017-Apr-18 04:27S 33°54' E 018°26'0 0.0
2017-Apr-18 03:57S 33°54' E 018°26'0 0.0
2017-Apr-18 03:30S 33°54' E 018°26'0 0.0
2017-Apr-18 02:57S 33°54' E 018°26'0 0.0
2017-Apr-18 02:30S 33°54' E 018°26'0 0.0
2017-Apr-18 02:00S 33°54' E 018°26'0 0.0
2017-Apr-18 01:30S 33°54' E 018°26'0 0.0
2017-Apr-18 00:57S 33°54' E 018°26'0 0.0
2017-Apr-18 00:30S 33°54' E 018°26'0 0.0
2017-Apr-18 00:00S 33°54' E 018°26'0 0.0
2017-Apr-17 23:30S 33°54' E 018°26'0 0.0
2017-Apr-17 23:00S 33°54' E 018°26'0 0.0
2017-Apr-17 22:30S 33°54' E 018°26'0 0.0
2017-Apr-17 22:00S 33°54' E 018°26'0 0.0
2017-Apr-17 21:30S 33°54' E 018°26'0 0.0
2017-Apr-17 20:57S 33°54' E 018°26'0 0.0
2017-Apr-17 20:27S 33°54' E 018°26'0 0.0
2017-Apr-17 19:54S 33°54' E 018°26'0 0.0
2017-Apr-17 19:27S 33°54' E 018°26'0 0.0
2017-Apr-17 19:00S 33°54' E 018°26'0 0.0
2017-Apr-17 18:30S 33°54' E 018°26'0 0.0
2017-Apr-17 17:57S 33°54' E 018°26'0 0.0
2017-Apr-17 17:30S 33°54' E 018°26'0 0.0
2017-Apr-17 17:00S 33°54' E 018°26'0 0.0
2017-Apr-17 16:27S 33°54' E 018°26'0 0.0
2017-Apr-17 15:57S 33°54' E 018°26'0 0.0
2017-Apr-17 15:30S 33°54' E 018°26'0 0.0
2017-Apr-17 15:00S 33°54' E 018°26'0 0.0
2017-Apr-17 14:30S 33°54' E 018°26'0 0.0
2017-Apr-17 13:18S 33°54' E 018°26'0 0.0
2017-Apr-17 13:00S 33°54' E 018°26'0 0.0
2017-Apr-17 12:27S 33°54' E 018°26'0 0.0
2017-Apr-17 12:00S 33°54' E 018°26'0 0.0
2017-Apr-17 11:30S 33°54' E 018°26'0 0.0
2017-Apr-17 11:00S 33°54' E 018°26'0 0.0
2017-Apr-17 10:30S 33°54' E 018°26'0 0.0
2017-Apr-17 09:57S 33°54' E 018°26'0 0.0
2017-Apr-17 09:30S 33°54' E 018°26'0 0.0
2017-Apr-17 09:00S 33°54' E 018°26'0 0.0
2017-Apr-17 08:30S 33°54' E 018°26'0 0.0
2017-Apr-17 07:57S 33°54' E 018°26'0 0.0
2017-Apr-17 07:30S 33°54' E 018°26'0 0.0
2017-Apr-17 07:00S 33°54' E 018°26'0 0.0
2017-Apr-17 06:30S 33°54' E 018°26'0 0.0
2017-Apr-17 06:00S 33°54' E 018°26'0 0.0
2017-Apr-17 05:24S 33°54' E 018°26'0 0.0
2017-Apr-17 05:00S 33°54' E 018°26'0 0.0
2017-Apr-17 04:27S 33°54' E 018°26'0 0.0
2017-Apr-17 04:00S 33°54' E 018°26'0 0.0
2017-Apr-17 03:27S 33°54' E 018°26'0 0.0
2017-Apr-17 03:00S 33°54' E 018°26'0 0.0
2017-Apr-17 02:30S 33°54' E 018°26'0 0.0
2017-Apr-17 02:00S 33°54' E 018°26'0 0.0
2017-Apr-17 01:27S 33°54' E 018°26'0 0.0
2017-Apr-17 00:57S 33°54' E 018°26'0 0.0
2017-Apr-17 00:30S 33°54' E 018°26'0 0.0
2017-Apr-17 00:00S 33°54' E 018°26'0 0.0
2017-Apr-16 23:30S 33°54' E 018°26'0 0.0
2017-Apr-16 22:54S 33°54' E 018°26'0 0.0
2017-Apr-16 22:30S 33°54' E 018°26'0 0.0
2017-Apr-16 21:57S 33°54' E 018°26'0 0.0
2017-Apr-16 21:24S 33°54' E 018°26'0 0.0
2017-Apr-16 21:00S 33°54' E 018°26'0 0.0
2017-Apr-16 20:30S 33°54' E 018°26'0 0.0
2017-Apr-16 19:59S 33°54' E 018°26'0 0.0
2017-Apr-16 19:29S 33°54' E 018°26'0 0.0
2017-Apr-16 18:59S 33°54' E 018°26'0 0.0
2017-Apr-16 18:29S 33°54' E 018°26'0 0.0
2017-Apr-16 17:59S 33°54' E 018°26'0 0.0
2017-Apr-16 17:29S 33°54' E 018°26'0 0.0
2017-Apr-16 16:59S 33°54' E 018°26'0 0.0
2017-Apr-16 16:29S 33°54' E 018°26'0 0.0
2017-Apr-16 15:56S 33°54' E 018°26'0 0.0
2017-Apr-16 15:23S 33°54' E 018°26'0 0.0
2017-Apr-16 14:59S 33°54' E 018°26'0 0.0
2017-Apr-16 13:56S 33°54' E 018°26'0 0.0
2017-Apr-16 13:29S 33°54' E 018°26'0 0.0
2017-Apr-16 12:56S 33°54' E 018°26'0 0.0
2017-Apr-16 12:29S 33°54' E 018°26'0 0.0
2017-Apr-16 11:59S 33°54' E 018°26'0 0.0
2017-Apr-16 11:29S 33°54' E 018°26'0 0.0
2017-Apr-16 10:50S 33°54' E 018°26'0 0.0
2017-Apr-16 10:29S 33°54' E 018°26'0 0.0
2017-Apr-16 09:59S 33°54' E 018°26'0 0.0
2017-Apr-16 09:29S 33°54' E 018°26'0 0.0
2017-Apr-16 08:59S 33°54' E 018°26'0 0.0
2017-Apr-16 08:29S 33°54' E 018°26'0 0.0
2017-Apr-16 07:59S 33°54' E 018°26'0 0.0
2017-Apr-16 07:29S 33°54' E 018°26'0 0.0
2017-Apr-16 06:56S 33°54' E 018°26'0 0.0
2017-Apr-16 06:29S 33°54' E 018°26'0 0.0
2017-Apr-16 05:59S 33°54' E 018°26'0 0.0
2017-Apr-16 05:29S 33°54' E 018°26'0 0.0
2017-Apr-16 04:59S 33°54' E 018°26'0 0.0
2017-Apr-16 04:29S 33°54' E 018°26'0 0.0
2017-Apr-16 03:53S 33°54' E 018°26'0 0.0
2017-Apr-16 03:23S 33°54' E 018°26'0 0.0
2017-Apr-16 02:59S 33°54' E 018°26'0 0.0
2017-Apr-16 02:29S 33°54' E 018°26'0 0.0
2017-Apr-16 01:56S 33°54' E 018°26'0 0.0
2017-Apr-16 01:29S 33°54' E 018°26'0 0.0
2017-Apr-16 00:59S 33°54' E 018°26'0 0.0
2017-Apr-16 00:26S 33°54' E 018°26'0 0.0
2017-Apr-15 23:59S 33°54' E 018°26'0 0.0
2017-Apr-15 23:29S 33°54' E 018°26'0 0.0
2017-Apr-15 22:53S 33°54' E 018°26'0 0.0
2017-Apr-15 22:29S 33°54' E 018°26'0 0.0
2017-Apr-15 21:59S 33°54' E 018°26'0 0.0
2017-Apr-15 21:29S 33°54' E 018°26'0 0.0
2017-Apr-15 20:59S 33°54' E 018°26'0 0.0
2017-Apr-15 20:29S 33°54' E 018°26'0 0.0
2017-Apr-15 19:59S 33°54' E 018°26'0 0.0
2017-Apr-15 19:26S 33°54' E 018°26'0 0.0
2017-Apr-15 18:56S 33°54' E 018°26'0 0.0
2017-Apr-15 18:29S 33°54' E 018°26'0 0.0
2017-Apr-15 17:59S 33°54' E 018°26'0 0.0
2017-Apr-15 17:29S 33°54' E 018°26'0 0.0
2017-Apr-15 16:59S 33°54' E 018°26'0 0.0
2017-Apr-15 16:29S 33°54' E 018°26'0 0.0
2017-Apr-15 15:53S 33°54' E 018°26'0 0.0
2017-Apr-15 15:29S 33°54' E 018°26'0 0.0
2017-Apr-15 14:59S 33°54' E 018°26'0 0.0
2017-Apr-15 14:29S 33°54' E 018°26'0 0.0
2017-Apr-15 13:59S 33°54' E 018°26'0 0.0
2017-Apr-15 13:29S 33°54' E 018°26'0 0.0
2017-Apr-15 12:59S 33°54' E 018°26'0 0.0
2017-Apr-15 12:29S 33°54' E 018°26'0 0.0
2017-Apr-15 11:59S 33°54' E 018°26'0 0.0
2017-Apr-15 11:29S 33°54' E 018°26'0 0.0
2017-Apr-15 10:59S 33°54' E 018°26'0 0.0
2017-Apr-15 10:28S 33°54' E 018°26'0 0.0
2017-Apr-15 09:58S 33°54' E 018°26'0 0.0
2017-Apr-15 09:28S 33°54' E 018°26'0 0.0
2017-Apr-15 08:55S 33°54' E 018°26'0 0.0
2017-Apr-15 08:28S 33°54' E 018°26'0 0.0
2017-Apr-15 07:58S 33°54' E 018°26'0 0.0
2017-Apr-15 07:28S 33°54' E 018°26'0 0.0
2017-Apr-15 06:58S 33°54' E 018°26'0 0.0
2017-Apr-15 06:22S 33°54' E 018°26'0 0.0
2017-Apr-15 05:55S 33°54' E 018°26'0 0.0
2017-Apr-15 05:28S 33°54' E 018°26'0 0.0
2017-Apr-15 04:52S 33°54' E 018°26'0 0.0
2017-Apr-15 04:28S 33°54' E 018°26'0 0.0
2017-Apr-15 03:55S 33°54' E 018°26'0 0.0
2017-Apr-15 03:28S 33°54' E 018°26'0 0.0
2017-Apr-15 02:58S 33°54' E 018°26'0 0.0
2017-Apr-15 02:28S 33°54' E 018°26'0 0.0
2017-Apr-15 01:58S 33°54' E 018°26'0 0.0
2017-Apr-15 01:25S 33°54' E 018°26'0 0.0
2017-Apr-15 00:58S 33°54' E 018°26'0 0.0
2017-Apr-15 00:25S 33°54' E 018°26'0 0.0
2017-Apr-14 23:58S 33°54' E 018°26'0 0.0
2017-Apr-14 23:13S 33°54' E 018°26'0 0.0
2017-Apr-14 22:58S 33°54' E 018°26'0 0.0
2017-Apr-14 22:28S 33°54' E 018°26'0 0.0
2017-Apr-14 21:58S 33°54' E 018°26'0 0.0
2017-Apr-14 21:28S 33°54' E 018°26'0 0.0
2017-Apr-14 20:52S 33°54' E 018°26'0 0.0
2017-Apr-14 20:28S 33°54' E 018°26'0 0.0
2017-Apr-14 19:58S 33°54' E 018°26'0 0.0
2017-Apr-14 19:25S 33°54' E 018°26'0 0.0
2017-Apr-14 18:58S 33°54' E 018°26'0 0.0
2017-Apr-14 18:28S 33°54' E 018°26'0 0.0
2017-Apr-14 17:52S 33°54' E 018°26'0 0.0
2017-Apr-14 17:25S 33°54' E 018°26'0 0.0
2017-Apr-14 16:55S 33°54' E 018°26'0 0.0
2017-Apr-14 16:28S 33°54' E 018°26'0 0.0
2017-Apr-14 15:58S 33°54' E 018°26'0 0.0
2017-Apr-14 15:25S 33°54' E 018°26'0 0.0
2017-Apr-14 14:58S 33°54' E 018°26'0 0.0
2017-Apr-14 14:22S 33°54' E 018°26'0 0.0
2017-Apr-14 13:28S 33°54' E 018°26'0 0.0
2017-Apr-14 12:58S 33°54' E 018°26'0 0.0
2017-Apr-14 12:28S 33°54' E 018°26'0 0.0
2017-Apr-14 11:58S 33°54' E 018°26'0 0.0
2017-Apr-14 11:25S 33°54' E 018°26'0 0.0
2017-Apr-14 10:58S 33°54' E 018°26'0 0.0
2017-Apr-14 10:28S 33°54' E 018°26'0 0.0
2017-Apr-14 09:58S 33°54' E 018°26'0 0.0
2017-Apr-14 09:28S 33°54' E 018°26'0 0.0
2017-Apr-14 08:58S 33°54' E 018°26'0 0.0
2017-Apr-14 08:28S 33°54' E 018°26'0 0.0
2017-Apr-14 07:58S 33°54' E 018°26'0 0.0
2017-Apr-14 07:28S 33°54' E 018°26'0 0.0
2017-Apr-14 06:55S 33°54' E 018°26'0 0.0
2017-Apr-14 06:25S 33°54' E 018°26'0 0.0
2017-Apr-14 05:58S 33°54' E 018°26'0 0.0
2017-Apr-14 05:28S 33°54' E 018°26'0 0.0
2017-Apr-14 04:58S 33°54' E 018°26'0 0.0
2017-Apr-14 04:28S 33°54' E 018°26'0 0.0
2017-Apr-14 03:58S 33°54' E 018°26'0 0.0
2017-Apr-14 03:28S 33°54' E 018°26'0 0.0
2017-Apr-14 02:58S 33°54' E 018°26'0 0.0
2017-Apr-14 02:28S 33°54' E 018°26'0 0.0
2017-Apr-14 01:55S 33°54' E 018°26'0 0.0
2017-Apr-14 01:31S 33°54' E 018°26'0 0.0
2017-Apr-14 00:55S 33°54' E 018°26'0 0.0
2017-Apr-14 00:30S 33°54' E 018°26'0 0.0
2017-Apr-14 00:00S 33°54' E 018°26'0 0.0
2017-Apr-13 23:30S 33°54' E 018°26'0 0.0
2017-Apr-13 23:00S 33°54' E 018°26'0 0.0
2017-Apr-13 22:30S 33°54' E 018°26'0 0.0
2017-Apr-13 22:00S 33°54' E 018°26'0 0.0
2017-Apr-13 21:27S 33°54' E 018°26'0 0.0
2017-Apr-13 21:00S 33°54' E 018°26'0 0.0
2017-Apr-13 20:27S 33°54' E 018°26'0 0.0
2017-Apr-13 19:54S 33°54' E 018°26'0 0.0
2017-Apr-13 19:24S 33°54' E 018°26'0 0.0
2017-Apr-13 18:54S 33°54' E 018°26'0 0.0
2017-Apr-13 18:30S 33°54' E 018°26'0 0.0
2017-Apr-13 17:57S 33°54' E 018°26'0 0.0
2017-Apr-13 17:30S 33°54' E 018°26'0 0.0
2017-Apr-13 17:00S 33°54' E 018°26'0 0.0
2017-Apr-13 16:30S 33°54' E 018°26'0 0.0
2017-Apr-13 15:54S 33°54' E 018°26'0 0.0
2017-Apr-13 15:30S 33°54' E 018°26'0 0.0
2017-Apr-13 15:00S 33°54' E 018°26'0 0.0
2017-Apr-13 14:00S 33°54' E 018°26'0 0.0
2017-Apr-13 13:30S 33°54' E 018°26'0 0.0
2017-Apr-13 13:00S 33°54' E 018°26'0 0.0
2017-Apr-13 12:30S 33°54' E 018°26'0 0.0
2017-Apr-13 12:00S 33°54' E 018°26'0 0.0
2017-Apr-13 11:30S 33°54' E 018°26'0 0.0
2017-Apr-13 10:58S 33°54' E 018°26'0 0.0
2017-Apr-13 10:25S 33°54' E 018°26'0 0.0
2017-Apr-13 09:58S 33°54' E 018°26'0 0.0
2017-Apr-13 09:25S 33°54' E 018°26'0 0.0
2017-Apr-13 08:58S 33°54' E 018°26'0 0.0
2017-Apr-13 08:28S 33°54' E 018°26'0 0.0
2017-Apr-13 07:58S 33°54' E 018°26'0 0.0
2017-Apr-13 07:28S 33°54' E 018°26'0 0.0
2017-Apr-13 06:55S 33°54' E 018°26'0 0.0
2017-Apr-13 06:28S 33°54' E 018°26'0 0.0
2017-Apr-13 05:58S 33°54' E 018°26'0 0.0
2017-Apr-13 05:22S 33°54' E 018°26'0 0.0
2017-Apr-13 04:58S 33°54' E 018°26'0 0.0
2017-Apr-13 04:28S 33°54' E 018°26'0 0.0
2017-Apr-13 03:52S 33°54' E 018°26'0 0.0
2017-Apr-13 03:31S 33°54' E 018°26'0 0.0
2017-Apr-13 03:01S 33°54' E 018°26'0 0.0
2017-Apr-13 02:30S 33°54' E 018°26'0 0.0
2017-Apr-13 01:57S 33°54' E 018°26'0 0.0
2017-Apr-13 01:27S 33°54' E 018°26'0 0.0
2017-Apr-13 01:00S 33°54' E 018°26'0 0.0
2017-Apr-13 00:30S 33°54' E 018°26'0 0.0
2017-Apr-13 00:00S 33°54' E 018°26'0 0.0
2017-Apr-12 23:30S 33°54' E 018°26'0 0.0
2017-Apr-12 23:00S 33°54' E 018°26'0 0.0
2017-Apr-12 22:27S 33°54' E 018°26'0 0.0
2017-Apr-12 22:00S 33°54' E 018°26'0 0.0
2017-Apr-12 21:30S 33°54' E 018°26'0 0.0
2017-Apr-12 21:00S 33°54' E 018°26'0 0.0
2017-Apr-12 20:30S 33°54' E 018°26'0 0.0
2017-Apr-12 19:57S 33°54' E 018°26'0 0.0
2017-Apr-12 19:30S 33°54' E 018°26'0 0.0
2017-Apr-12 19:00S 33°54' E 018°26'0 0.0
2017-Apr-12 18:30S 33°54' E 018°26'0 0.0
2017-Apr-12 18:00S 33°54' E 018°26'0 0.0
2017-Apr-12 17:27S 33°54' E 018°26'0 0.0
2017-Apr-12 16:45S 33°54' E 018°26'  

Dump ship's entire track history